createdAt,value
2023-04-29T00:00:32.899Z,8.10
2023-04-29T00:03:01.710Z,8.33
2023-04-29T00:05:31.227Z,8.63
2023-04-29T00:07:59.345Z,8.27
2023-04-29T00:10:27.342Z,9.20
2023-04-29T00:12:55.313Z,8.20
2023-04-29T00:15:23.346Z,9.73
2023-04-29T00:17:51.296Z,9.13
2023-04-29T00:20:19.359Z,9.43
2023-04-29T00:22:49.493Z,11.77
2023-04-29T00:25:17.738Z,11.07
2023-04-29T00:27:45.743Z,11.57
2023-04-29T00:30:13.771Z,12.50
2023-04-29T00:32:42.009Z,11.40
2023-04-29T00:35:10.647Z,12.27
2023-04-29T00:37:38.951Z,11.80
2023-04-29T00:40:10.263Z,11.00
2023-04-29T00:42:39.153Z,12.33
2023-04-29T00:45:08.393Z,12.27
2023-04-29T00:47:36.430Z,12.17
2023-04-29T00:50:04.723Z,13.53
2023-04-29T00:52:32.901Z,11.57
2023-04-29T00:55:01.220Z,12.97
2023-04-29T00:57:30.723Z,12.63
2023-04-29T00:59:59.563Z,12.97
2023-04-29T01:02:29.580Z,13.27
2023-04-29T01:04:57.802Z,13.77
2023-04-29T01:07:31.692Z,14.40
2023-04-29T01:10:04.792Z,16.37
2023-04-29T01:12:40.367Z,14.13
2023-04-29T01:15:13.792Z,13.03
2023-04-29T01:17:45.331Z,12.37
2023-04-29T01:20:14.816Z,14.73
2023-04-29T01:22:43.144Z,12.77
2023-04-29T01:25:13.084Z,13.27
2023-04-29T01:28:08.902Z,12.63
2023-04-29T01:30:47.268Z,11.77
2023-04-29T01:33:19.417Z,11.23
2023-04-29T01:35:58.711Z,10.37
2023-04-29T01:38:34.252Z,12.43
2023-04-29T01:41:11.754Z,12.60
2023-04-29T01:43:40.950Z,12.17
2023-04-29T01:46:19.719Z,12.40
2023-04-29T01:48:48.213Z,12.13
2023-04-29T01:51:16.445Z,10.47
2023-04-29T01:53:44.484Z,10.87
2023-04-29T01:56:14.062Z,13.10
2023-04-29T01:59:02.356Z,10.43
2023-04-29T02:01:33.839Z,9.50
2023-04-29T02:04:02.414Z,9.30
2023-04-29T02:06:32.214Z,11.53
2023-04-29T02:09:03.090Z,11.40
2023-04-29T02:11:33.150Z,10.07
2023-04-29T02:14:01.556Z,10.37
2023-04-29T02:16:29.853Z,12.43
2023-04-29T02:19:01.038Z,12.93
2023-04-29T02:21:29.002Z,11.47
2023-04-29T02:23:57.016Z,13.53
2023-04-29T02:26:26.345Z,15.33
2023-04-29T02:28:58.237Z,17.50
2023-04-29T02:31:26.587Z,20.03
2023-04-29T02:33:55.756Z,20.27
2023-04-29T02:36:24.629Z,22.87
2023-04-29T02:38:55.255Z,20.93
2023-04-29T02:41:23.709Z,22.57
2023-04-29T02:43:51.677Z,24.07
2023-04-29T02:46:21.420Z,24.47
2023-04-29T02:48:49.459Z,23.73
2023-04-29T02:51:17.372Z,24.07
2023-04-29T02:53:45.416Z,25.17
2023-04-29T02:56:13.401Z,24.40
2023-04-29T02:58:42.300Z,26.27
2023-04-29T03:01:10.358Z,26.20
2023-04-29T03:03:40.358Z,28.33
2023-04-29T03:06:08.721Z,30.03
2023-04-29T03:08:36.736Z,25.47
2023-04-29T03:11:04.817Z,28.50
2023-04-29T03:13:33.218Z,28.17
2023-04-29T03:16:01.827Z,28.57
2023-04-29T03:18:30.275Z,27.83
2023-04-29T03:20:59.898Z,27.40
2023-04-29T03:23:28.072Z,30.43
2023-04-29T03:25:57.065Z,28.17
2023-04-29T03:28:26.563Z,29.00
2023-04-29T03:30:54.612Z,27.23
2023-04-29T03:33:22.849Z,28.73
2023-04-29T03:35:51.658Z,28.47
2023-04-29T03:38:24.586Z,28.90
2023-04-29T03:40:52.726Z,27.57
2023-04-29T03:43:21.386Z,30.20
2023-04-29T03:45:49.681Z,26.63
2023-04-29T03:48:21.463Z,29.90
2023-04-29T03:50:49.623Z,27.67
2023-04-29T03:53:18.559Z,28.10
2023-04-29T03:55:48.498Z,28.80
2023-04-29T03:58:17.477Z,29.57
2023-04-29T04:00:45.923Z,33.83
2023-04-29T04:03:19.874Z,31.40
2023-04-29T04:05:47.927Z,33.57
2023-04-29T04:08:17.749Z,32.97
2023-04-29T04:10:55.086Z,40.10
2023-04-29T04:13:34.413Z,39.07
2023-04-29T04:16:03.621Z,38.63
2023-04-29T04:18:32.437Z,41.90
2023-04-29T04:21:06.822Z,41.13
2023-04-29T04:23:35.149Z,46.07
2023-04-29T04:26:06.225Z,46.47
2023-04-29T04:28:42.977Z,47.23
2023-04-29T04:31:16.952Z,49.20
2023-04-29T04:33:45.109Z,52.67
2023-04-29T04:36:13.998Z,56.60
2023-04-29T04:38:41.981Z,59.23
2023-04-29T04:41:14.580Z,62.13
2023-04-29T04:43:47.821Z,64.13
2023-04-29T04:46:22.743Z,66.53
2023-04-29T04:49:06.134Z,71.87
2023-04-29T04:51:35.993Z,70.03
2023-04-29T04:54:04.069Z,70.17
2023-04-29T04:56:37.591Z,70.10
2023-04-29T04:59:07.333Z,69.63
2023-04-29T05:01:38.215Z,71.80
2023-04-29T05:04:06.764Z,77.07
2023-04-29T05:06:34.929Z,80.83
2023-04-29T05:09:04.772Z,78.57
2023-04-29T05:11:32.955Z,83.60
2023-04-29T05:14:14.850Z,85.17
2023-04-29T05:16:43.783Z,75.83
2023-04-29T05:19:11.905Z,81.17
2023-04-29T05:21:41.659Z,73.30
2023-04-29T05:24:11.557Z,70.23
2023-04-29T05:26:39.612Z,76.00
2023-04-29T05:29:08.415Z,63.90
2023-04-29T05:31:47.594Z,65.37
2023-04-29T05:34:15.799Z,67.07
2023-04-29T05:36:45.533Z,61.13
2023-04-29T05:39:13.573Z,65.03
2023-04-29T05:41:43.493Z,62.23
2023-04-29T05:44:16.993Z,61.63
2023-04-29T05:46:51.755Z,61.10
2023-04-29T05:49:20.493Z,62.50
2023-04-29T05:51:52.418Z,62.23
2023-04-29T05:54:20.552Z,62.53
2023-04-29T05:56:52.018Z,65.40
2023-04-29T05:59:20.042Z,62.53
2023-04-29T06:01:58.483Z,61.70
2023-04-29T06:04:27.231Z,60.80
2023-04-29T06:07:09.164Z,62.03
2023-04-29T06:09:50.344Z,53.57
2023-04-29T06:12:22.238Z,54.30
2023-04-29T06:14:50.499Z,52.50
2023-04-29T06:17:20.176Z,50.23
2023-04-29T06:19:48.316Z,60.07
2023-04-29T06:22:16.422Z,50.50
2023-04-29T06:24:52.748Z,56.40
2023-04-29T06:27:36.788Z,50.57
2023-04-29T06:30:05.638Z,49.23
2023-04-29T06:32:35.241Z,47.53
2023-04-29T06:35:03.416Z,51.70
2023-04-29T06:37:52.790Z,44.10
2023-04-29T06:40:45.184Z,41.67
2023-04-29T06:43:43.328Z,40.77
2023-04-29T06:46:31.333Z,39.57
2023-04-29T06:49:14.221Z,39.37
2023-04-29T06:51:43.089Z,37.17
2023-04-29T06:54:11.279Z,36.63
2023-04-29T06:56:39.472Z,38.07
2023-04-29T06:59:12.554Z,35.87
2023-04-29T07:01:43.412Z,33.20
2023-04-29T07:04:14.310Z,33.07
2023-04-29T07:06:46.853Z,28.67
2023-04-29T07:09:15.486Z,29.20
2023-04-29T07:11:43.856Z,32.03
2023-04-29T07:14:12.244Z,29.70
2023-04-29T07:16:40.879Z,29.07
2023-04-29T07:19:11.696Z,25.60
2023-04-29T07:21:41.690Z,29.87
2023-04-29T07:24:09.955Z,24.00
2023-04-29T07:26:38.542Z,24.77
2023-04-29T07:29:08.336Z,24.57
2023-04-29T07:31:38.276Z,28.03
2023-04-29T07:34:07.122Z,27.50
2023-04-29T07:36:35.594Z,26.57
2023-04-29T07:39:05.546Z,26.60
2023-04-29T07:41:33.831Z,26.63
2023-04-29T07:44:02.321Z,23.40
2023-04-29T07:46:31.401Z,26.70
2023-04-29T07:48:59.841Z,25.07
2023-04-29T07:51:29.144Z,26.10
2023-04-29T07:53:57.464Z,25.90
2023-04-29T07:56:27.432Z,20.93
2023-04-29T07:58:55.750Z,22.80
2023-04-29T08:01:24.195Z,25.13
2023-04-29T08:03:53.450Z,20.00
2023-04-29T08:06:23.832Z,22.53
2023-04-29T08:08:52.796Z,21.40
2023-04-29T08:11:22.215Z,21.60
2023-04-29T08:13:57.370Z,18.90
2023-04-29T08:16:26.280Z,20.27
2023-04-29T08:18:54.819Z,20.47
2023-04-29T08:21:23.060Z,19.37
2023-04-29T08:23:51.243Z,20.20
2023-04-29T08:26:19.776Z,17.60
2023-04-29T08:28:48.098Z,19.63
2023-04-29T08:31:21.828Z,18.27
2023-04-29T08:33:50.349Z,19.73
2023-04-29T08:36:18.423Z,16.03
2023-04-29T08:38:47.150Z,16.87
2023-04-29T08:41:16.820Z,15.93
2023-04-29T08:43:44.911Z,18.93
2023-04-29T08:46:13.966Z,16.50
2023-04-29T08:48:45.543Z,19.13
2023-04-29T08:51:14.000Z,16.63
2023-04-29T08:53:41.985Z,16.23
2023-04-29T08:56:14.909Z,17.53
2023-04-29T08:58:43.474Z,16.63
2023-04-29T09:01:11.761Z,16.30
2023-04-29T09:03:46.393Z,18.67
2023-04-29T09:06:14.950Z,16.40
2023-04-29T09:08:43.155Z,19.73
2023-04-29T09:11:12.097Z,20.87
2023-04-29T09:13:40.259Z,18.13
2023-04-29T09:16:12.359Z,21.40
2023-04-29T09:18:46.772Z,21.27
2023-04-29T09:21:16.478Z,21.67
2023-04-29T09:23:44.866Z,20.93
2023-04-29T09:26:12.967Z,19.47
2023-04-29T09:28:43.652Z,19.20
2023-04-29T09:31:12.081Z,20.97
2023-04-29T09:33:54.918Z,19.77
2023-04-29T09:36:40.595Z,16.77
2023-04-29T09:39:12.496Z,18.93
2023-04-29T09:41:41.689Z,19.07
2023-04-29T09:44:10.570Z,17.83
2023-04-29T09:46:39.127Z,17.23
2023-04-29T09:49:24.650Z,15.80
2023-04-29T09:51:57.116Z,16.33
2023-04-29T09:54:28.365Z,15.77
2023-04-29T09:56:57.813Z,17.40
2023-04-29T09:59:26.398Z,15.47
2023-04-29T10:01:55.842Z,15.10
2023-04-29T10:04:27.342Z,15.70
2023-04-29T10:06:56.299Z,16.17
2023-04-29T10:09:24.985Z,14.63
2023-04-29T10:11:54.851Z,14.33
2023-04-29T10:14:24.804Z,15.27
2023-04-29T10:17:00.376Z,15.47
2023-04-29T10:19:35.320Z,17.47
2023-04-29T10:22:10.626Z,16.17
2023-04-29T10:24:41.622Z,17.40
2023-04-29T10:27:12.299Z,18.03
2023-04-29T10:29:41.565Z,17.50
2023-04-29T10:32:10.998Z,18.33
2023-04-29T10:34:40.668Z,21.20
2023-04-29T10:37:10.154Z,23.07
2023-04-29T10:40:01.039Z,24.20
2023-04-29T10:42:33.082Z,24.57
2023-04-29T10:45:26.903Z,24.37
2023-04-29T10:48:18.923Z,21.00
2023-04-29T10:51:04.395Z,23.27
2023-04-29T10:53:32.552Z,24.77
2023-04-29T10:56:05.870Z,23.07
2023-04-29T10:58:39.165Z,21.13
2023-04-29T11:01:08.510Z,21.20
2023-04-29T11:03:58.836Z,24.03
2023-04-29T11:06:41.503Z,24.10
2023-04-29T11:09:11.993Z,24.27
2023-04-29T11:11:44.413Z,26.53
2023-04-29T11:14:14.122Z,26.27
2023-04-29T11:16:49.813Z,30.93
2023-04-29T11:19:18.649Z,29.80
2023-04-29T11:21:48.913Z,28.23
2023-04-29T11:24:18.565Z,28.03
2023-04-29T11:26:46.752Z,28.63
2023-04-29T11:29:15.306Z,25.23
2023-04-29T11:31:43.433Z,26.33
2023-04-29T11:34:11.708Z,25.93
2023-04-29T11:36:39.768Z,28.13
2023-04-29T11:39:09.340Z,30.53
2023-04-29T11:41:37.576Z,33.53
2023-04-29T11:44:07.499Z,34.40
2023-04-29T11:46:35.575Z,35.60
2023-04-29T11:49:03.640Z,35.77
2023-04-29T11:51:32.703Z,35.67
2023-04-29T11:54:00.832Z,37.00
2023-04-29T11:56:30.329Z,30.47
2023-04-29T11:59:01.358Z,29.90
2023-04-29T12:01:29.407Z,24.53
2023-04-29T12:04:01.081Z,25.13
2023-04-29T12:06:30.616Z,23.17
2023-04-29T12:09:00.414Z,22.97
2023-04-29T12:11:29.932Z,21.40
2023-04-29T12:13:58.162Z,21.73
2023-04-29T12:16:26.663Z,20.43
2023-04-29T12:18:55.129Z,22.17
2023-04-29T12:21:23.521Z,22.23
2023-04-29T12:23:52.454Z,22.10
2023-04-29T12:26:21.112Z,20.80
2023-04-29T12:28:55.031Z,23.13
2023-04-29T12:31:24.276Z,22.60
2023-04-29T12:33:55.346Z,23.17
2023-04-29T12:36:24.430Z,25.43
2023-04-29T12:38:54.656Z,28.07
2023-04-29T12:41:37.767Z,29.60
2023-04-29T12:44:07.457Z,35.07
2023-04-29T12:46:37.016Z,47.07
2023-04-29T12:49:05.824Z,51.10
2023-04-29T12:51:34.166Z,53.50
2023-04-29T12:54:04.962Z,63.00
2023-04-29T12:56:32.959Z,59.03
2023-04-29T12:59:08.392Z,59.20
2023-04-29T13:01:36.569Z,60.50
2023-04-29T13:04:06.319Z,59.80
2023-04-29T13:06:35.006Z,59.17
2023-04-29T13:09:03.296Z,62.27
2023-04-29T13:11:34.307Z,63.97
2023-04-29T13:14:02.952Z,64.30
2023-04-29T13:16:32.564Z,63.60
2023-04-29T13:19:12.363Z,67.47
2023-04-29T13:21:49.136Z,68.43
2023-04-29T13:24:18.313Z,61.73
2023-04-29T13:26:49.120Z,65.03
2023-04-29T13:29:18.968Z,63.93
2023-04-29T13:31:48.451Z,64.47
2023-04-29T13:34:16.666Z,65.57
2023-04-29T13:36:44.728Z,59.53
2023-04-29T13:39:14.818Z,57.97
2023-04-29T13:41:45.960Z,47.67
2023-04-29T13:46:47.488Z,47.87
2023-04-29T13:49:42.359Z,50.70
2023-04-29T13:52:50.570Z,54.60
2023-04-29T13:58:20.615Z,57.90
2023-04-29T14:00:38.267Z,60.87
2023-04-29T14:03:05.527Z,64.30
2023-04-29T14:05:35.291Z,69.90
2023-04-29T14:08:03.753Z,67.97
2023-04-29T14:10:32.122Z,72.47
2023-04-29T14:13:00.117Z,65.87
2023-04-29T14:15:28.203Z,65.63
2023-04-29T14:17:56.628Z,67.33
2023-04-29T14:20:24.686Z,69.87
2023-04-29T14:22:54.291Z,62.23
2023-04-29T14:25:22.349Z,60.57
2023-04-29T14:27:50.430Z,60.83
2023-04-29T14:30:19.399Z,55.17
2023-04-29T14:32:47.536Z,55.73
2023-04-29T14:35:16.306Z,51.40
2023-04-29T14:37:44.292Z,51.53
2023-04-29T14:40:14.147Z,54.17
2023-04-29T14:42:42.424Z,51.47
2023-04-29T14:45:11.462Z,48.93
2023-04-29T14:47:39.494Z,54.30
2023-04-29T14:50:09.787Z,50.53
2023-04-29T14:52:37.939Z,46.93
2023-04-29T14:55:06.359Z,50.77
2023-04-29T14:57:35.725Z,49.73
2023-04-29T15:00:04.202Z,49.23
2023-04-29T15:02:32.318Z,46.97
2023-04-29T15:05:00.535Z,49.30
2023-04-29T15:07:31.543Z,44.93
2023-04-29T15:09:59.736Z,41.30
2023-04-29T15:12:27.800Z,39.20
2023-04-29T15:14:57.200Z,43.27
2023-04-29T15:17:25.625Z,39.93
2023-04-29T15:19:53.788Z,44.33
2023-04-29T15:22:21.739Z,44.80
2023-04-29T15:24:52.137Z,35.00
2023-04-29T15:27:21.248Z,40.83
2023-04-29T15:29:49.236Z,41.70
2023-04-29T15:32:18.887Z,39.10
2023-04-29T15:34:46.959Z,38.70
2023-04-29T15:37:15.007Z,41.93
2023-04-29T15:39:43.121Z,40.30
2023-04-29T15:42:11.102Z,41.77
2023-04-29T15:44:39.107Z,39.83
2023-04-29T15:47:07.197Z,38.43
2023-04-29T15:49:37.200Z,44.50
2023-04-29T15:52:05.755Z,44.43
2023-04-29T15:54:33.817Z,42.17
2023-04-29T15:57:03.432Z,45.67
2023-04-29T15:59:31.518Z,43.73
2023-04-29T16:01:59.577Z,43.30
2023-04-29T16:04:27.643Z,44.80
2023-04-29T16:06:57.088Z,46.10
2023-04-29T16:09:25.103Z,45.63
2023-04-29T16:11:53.924Z,40.97
2023-04-29T16:14:21.908Z,40.90
2023-04-29T16:16:50.638Z,36.97
2023-04-29T16:19:18.750Z,38.93
2023-04-29T16:21:46.844Z,41.33
2023-04-29T16:24:16.630Z,42.23
2023-04-29T16:26:44.686Z,38.87
2023-04-29T16:29:13.431Z,38.07
2023-04-29T16:31:41.497Z,40.00
2023-04-29T16:34:09.800Z,40.20
2023-04-29T16:36:37.888Z,40.23
2023-04-29T16:39:06.216Z,42.33
2023-04-29T16:41:35.647Z,38.90
2023-04-29T16:44:03.696Z,39.00
2023-04-29T16:46:32.497Z,37.63
2023-04-29T16:49:00.731Z,37.17
2023-04-29T16:51:29.179Z,35.40
2023-04-29T16:53:57.240Z,36.47
2023-04-29T16:56:25.765Z,38.67
2023-04-29T16:58:55.159Z,35.23
2023-04-29T17:01:23.193Z,35.70
2023-04-29T17:03:51.482Z,36.33
2023-04-29T17:06:19.725Z,35.17
2023-04-29T17:08:50.098Z,34.53
2023-04-29T17:11:19.454Z,35.17
2023-04-29T17:13:47.453Z,35.33
2023-04-29T17:16:17.033Z,33.50
2023-04-29T17:18:45.260Z,34.23
2023-04-29T17:21:13.276Z,31.20
2023-04-29T17:23:41.361Z,32.90
2023-04-29T17:26:09.456Z,30.27
2023-04-29T17:28:37.606Z,32.13
2023-04-29T17:31:06.377Z,34.63
2023-04-29T17:33:35.871Z,34.40
2023-04-29T17:36:04.880Z,30.87
2023-04-29T17:38:33.776Z,33.60
2023-04-29T17:41:02.453Z,30.80
2023-04-29T17:43:33.212Z,31.07
2023-04-29T17:46:01.309Z,35.77
2023-04-29T17:48:29.327Z,36.43
2023-04-29T17:50:58.797Z,32.97
2023-04-29T17:53:28.524Z,32.87
2023-04-29T17:55:56.532Z,33.10
2023-04-29T17:58:24.603Z,31.30
2023-04-29T18:00:52.687Z,31.83
2023-04-29T18:03:20.914Z,28.63
2023-04-29T18:05:49.032Z,27.83
2023-04-29T18:08:18.442Z,25.93
2023-04-29T18:10:46.609Z,26.33
2023-04-29T18:13:14.614Z,26.27
2023-04-29T18:15:42.909Z,27.93
2023-04-29T18:18:11.067Z,28.10
2023-04-29T18:20:40.695Z,25.53
2023-04-29T18:23:08.684Z,28.90
2023-04-29T18:25:39.456Z,29.27
2023-04-29T18:28:23.562Z,29.10
2023-04-29T18:30:53.748Z,29.47
2023-04-29T18:33:23.234Z,32.30
2023-04-29T18:35:51.635Z,32.60
2023-04-29T18:38:19.812Z,30.73
2023-04-29T18:40:49.478Z,32.27
2023-04-29T18:43:18.309Z,34.20
2023-04-29T18:45:46.687Z,32.60
2023-04-29T18:48:15.043Z,36.90
2023-04-29T18:50:43.639Z,45.37
2023-04-29T18:53:11.773Z,41.87
2023-04-29T18:55:39.860Z,36.87
2023-04-29T18:58:09.302Z,37.03
2023-04-29T19:00:37.476Z,36.63
2023-04-29T19:03:06.153Z,32.00
2023-04-29T19:05:34.806Z,32.77
2023-04-29T19:08:02.970Z,34.90
2023-04-29T19:10:30.965Z,35.43
2023-04-29T19:12:59.064Z,37.70
2023-04-29T19:15:28.634Z,34.17
2023-04-29T19:17:57.011Z,34.00
2023-04-29T19:20:25.118Z,37.00
2023-04-29T19:22:53.255Z,35.90
2023-04-29T19:25:21.769Z,37.60
2023-04-29T19:27:51.065Z,38.40
2023-04-29T19:30:19.241Z,37.67
2023-04-29T19:32:48.789Z,39.40
2023-04-29T19:35:17.063Z,40.87
2023-04-29T19:37:45.321Z,39.13
2023-04-29T19:40:13.526Z,38.87
2023-04-29T19:42:41.613Z,38.10
2023-04-29T19:45:12.478Z,37.27
2023-04-29T19:47:40.629Z,39.63
2023-04-29T19:50:10.750Z,37.03
2023-04-29T19:52:38.756Z,38.90
2023-04-29T19:55:09.052Z,39.10
2023-04-29T19:57:38.381Z,39.93
2023-04-29T20:00:08.586Z,42.67
2023-04-29T20:02:37.229Z,44.30
2023-04-29T20:05:06.190Z,42.53
2023-04-29T20:07:35.734Z,43.07
2023-04-29T20:10:03.981Z,40.87
2023-04-29T20:12:32.391Z,46.60
2023-04-29T20:15:00.733Z,43.57
2023-04-29T20:17:28.940Z,44.17
2023-04-29T20:19:56.962Z,45.20
2023-04-29T20:22:25.032Z,45.23
2023-04-29T20:24:54.427Z,44.37
2023-04-29T20:27:22.433Z,45.30
2023-04-29T20:29:50.404Z,45.97
2023-04-29T20:32:18.532Z,44.93
2023-04-29T20:34:46.714Z,42.47
2023-04-29T20:37:14.743Z,46.87
2023-04-29T20:39:43.116Z,44.70
2023-04-29T20:42:12.745Z,45.43
2023-04-29T20:44:40.818Z,46.73
2023-04-29T20:47:09.087Z,43.00
2023-04-29T20:49:37.690Z,46.17
2023-04-29T20:52:07.321Z,45.03
2023-04-29T20:54:35.836Z,49.43
2023-04-29T20:57:05.530Z,50.70
2023-04-29T20:59:35.291Z,46.23
2023-04-29T21:02:03.435Z,47.90
2023-04-29T21:04:31.433Z,45.93
2023-04-29T21:06:59.530Z,53.03
2023-04-29T21:09:27.545Z,49.77
2023-04-29T21:11:57.899Z,48.07
2023-04-29T21:14:26.252Z,46.33
2023-04-29T21:16:55.810Z,49.20
2023-04-29T21:19:23.918Z,50.33
2023-04-29T21:21:52.163Z,51.03
2023-04-29T21:24:20.370Z,48.37
2023-04-29T21:26:50.247Z,48.63
2023-04-29T21:29:19.806Z,48.30
2023-04-29T21:31:48.001Z,50.10
2023-04-29T21:34:17.731Z,49.53
2023-04-29T21:36:45.928Z,51.70
2023-04-29T21:39:13.983Z,47.93
2023-04-29T21:41:42.689Z,49.60
2023-04-29T21:44:10.807Z,50.47
2023-04-29T21:46:38.987Z,48.50
2023-04-29T21:49:07.491Z,53.97
2023-04-29T21:51:37.190Z,53.03
2023-04-29T21:54:08.357Z,52.30
2023-04-29T21:56:36.703Z,53.00
2023-04-29T21:59:04.821Z,52.03
2023-04-29T22:01:49.040Z,48.80
2023-04-29T22:04:17.399Z,50.27
2023-04-29T22:06:46.860Z,54.93
2023-04-29T22:09:16.132Z,51.90
2023-04-29T22:11:44.204Z,51.90
2023-04-29T22:14:12.261Z,48.33
2023-04-29T22:16:40.299Z,52.67
2023-04-29T22:19:08.634Z,54.27
2023-04-29T22:21:38.203Z,50.60
2023-04-29T22:24:08.018Z,51.33
2023-04-29T22:26:36.054Z,47.50
2023-04-29T22:29:04.470Z,50.93
2023-04-29T22:31:32.696Z,48.60
2023-04-29T22:34:00.786Z,50.17
2023-04-29T22:36:28.808Z,54.23
2023-04-29T22:38:56.933Z,55.17
2023-04-29T22:41:26.747Z,55.07
2023-04-29T22:43:57.349Z,52.53
2023-04-29T22:46:25.930Z,56.57
2023-04-29T22:48:53.986Z,55.47
2023-04-29T22:51:22.046Z,60.03
2023-04-29T22:53:50.119Z,55.83
2023-04-29T22:56:18.196Z,56.83
2023-04-29T22:58:47.647Z,56.30
2023-04-29T23:01:15.743Z,60.53
2023-04-29T23:03:43.743Z,56.63
2023-04-29T23:06:11.833Z,53.43
2023-04-29T23:08:39.849Z,75.77
2023-04-29T23:11:07.922Z,68.07
2023-04-29T23:13:35.995Z,62.23
2023-04-29T23:16:05.662Z,66.20
2023-04-29T23:18:33.816Z,61.47
2023-04-29T23:21:01.739Z,62.37
2023-04-29T23:23:29.732Z,58.73
2023-04-29T23:25:57.854Z,67.07
2023-04-29T23:28:25.881Z,61.17
2023-04-29T23:30:54.524Z,59.73
2023-04-29T23:33:24.009Z,60.07
2023-04-29T23:35:52.534Z,59.37
2023-04-29T23:38:21.027Z,62.87
2023-04-29T23:40:48.997Z,62.07
2023-04-29T23:43:17.194Z,59.57
2023-04-29T23:45:46.135Z,63.97
2023-04-29T23:48:15.727Z,59.27
2023-04-29T23:50:47.274Z,63.00
2023-04-29T23:53:15.795Z,61.30
2023-04-29T23:55:43.846Z,64.27
2023-04-29T23:58:12.023Z,69.30
